Time;durP1;ratioP1;P1;durP2;ratioP2;P2;SDS_P1;SDS_P2;PMS_P1;PMS_P2;Temp;Humidity;BMP_temperature;BMP_pressure;BME280_temperature;BME280_humidity;BME280_pressure;Samples;Min_cycle;Max_cycle;Signal;HPM_P1;HPM_P2
2022/04/19 00:00:51;;;;;;;8.52;2.97;;;;;;;3.95;100.00;101335.34;5036272;28;20065;-77
2022/04/19 00:03:17;;;;;;;5.13;3.40;;;;;;;3.97;100.00;101328.16;5039690;28;20048;-77
2022/04/19 00:05:43;;;;;;;7.75;3.60;;;;;;;3.92;100.00;101339.06;5041046;28;20060;-77
2022/04/19 00:08:11;;;;;;;6.05;3.20;;;;;;;3.86;100.00;101330.69;5037008;28;20040;-76
2022/04/19 00:10:37;;;;;;;5.50;3.13;;;;;;;3.79;100.00;101324.97;5036369;28;20449;-76
2022/04/19 00:13:04;;;;;;;5.57;3.25;;;;;;;3.72;100.00;101324.56;5037583;28;20028;-77
2022/04/19 00:15:32;;;;;;;4.75;2.72;;;;;;;3.72;100.00;101318.44;5039937;28;20452;-77
2022/04/19 00:18:02;;;;;;;11.57;4.80;;;;;;;3.68;100.00;101320.44;5040499;28;20074;-77
2022/04/19 00:20:28;;;;;;;5.43;3.00;;;;;;;3.66;100.00;101317.06;5037074;28;20033;-77
2022/04/19 00:22:54;;;;;;;;;;;;;;;3.61;100.00;101299.84;5038409;28;20021;-77
2022/04/19 00:25:20;;;;;;;;;;;;;;;3.59;100.00;101297.31;5024329;28;19925;-76
2022/04/19 00:27:45;;;;;;;6.05;3.15;;;;;;;3.54;100.00;101288.84;5036207;28;20388;-77
2022/04/19 00:30:12;;;;;;;4.20;2.75;;;;;;;3.52;100.00;101296.03;5038567;28;20033;-77
2022/04/19 00:32:38;;;;;;;5.43;2.92;;;;;;;3.53;100.00;101297.69;5043956;28;20021;-76
2022/04/19 00:35:09;;;;;;;6.05;3.70;;;;;;;3.53;100.00;101309.09;5027946;28;20121;-77
2022/04/19 00:37:36;;;;;;;7.72;4.03;;;;;;;3.52;100.00;101327.72;5039138;28;20049;-76
2022/04/19 00:40:05;;;;;;;9.52;3.28;;;;;;;3.48;100.00;101326.22;5038671;28;20109;-76
2022/04/19 00:42:32;;;;;;;9.07;3.97;;;;;;;3.44;100.00;101330.88;5038036;28;20043;-76
2022/04/19 00:44:59;;;;;;;10.70;4.03;;;;;;;3.40;100.00;101328.53;5027630;28;20491;-77
2022/04/19 00:47:25;;;;;;;5.95;3.28;;;;;;;3.35;100.00;101329.69;5022556;28;20041;-77
2022/04/19 00:49:52;;;;;;;6.03;3.10;;;;;;;3.35;100.00;101323.56;5020825;28;20022;-77
2022/04/19 00:52:18;;;;;;;5.28;3.22;;;;;;;3.23;100.00;101324.34;5018288;28;20038;-76
2022/04/19 00:54:46;;;;;;;8.27;4.18;;;;;;;3.25;100.00;101331.22;5024721;28;20029;-76
2022/04/19 00:57:13;;;;;;;5.50;3.88;;;;;;;3.20;100.00;101333.31;5019247;28;20048;-76
2022/04/19 00:59:42;;;;;;;7.10;3.70;;;;;;;3.14;100.00;101339.84;5019040;28;20033;-77
2022/04/19 01:02:07;;;;;;;8.80;3.80;;;;;;;3.12;100.00;101336.47;5020875;28;20033;-76
2022/04/19 01:04:33;;;;;;;5.68;3.45;;;;;;;3.10;100.00;101332.22;5022229;28;20098;-77
2022/04/19 01:06:59;;;;;;;6.18;3.53;;;;;;;3.07;100.00;101320.09;5037597;28;20457;-76
2022/04/19 01:09:25;;;;;;;9.27;4.65;;;;;;;3.03;100.00;101321.22;5014602;28;20431;-77
2022/04/19 01:14:37;;;;;;;6.75;3.53;;;;;;;2.99;100.00;101313.59;5038864;28;20502;-77
2022/04/19 01:17:07;;;;;;;8.35;3.40;;;;;;;2.99;100.00;101318.88;5024465;28;20033;-77
2022/04/19 01:19:40;;;;;;;5.95;3.30;;;;;;;3.00;100.00;101320.56;5025636;28;20140;-77
2022/04/19 01:22:12;;;;;;;6.95;3.50;;;;;;;2.94;100.00;101306.00;5025589;28;20025;-77
2022/04/19 01:24:43;;;;;;;4.50;2.85;;;;;;;2.96;100.00;101310.22;5042118;28;20457;-76
2022/04/19 01:27:09;;;;;;;7.47;3.50;;;;;;;2.94;100.00;101295.44;5041524;28;20064;-77
2022/04/19 01:29:35;;;;;;;;;;;;;;;2.91;100.00;101288.56;5026221;28;20112;-77
2022/04/19 01:32:01;;;;;;;;;;;;;;;2.87;100.00;101284.44;5040229;28;20000;-77
2022/04/19 01:34:27;;;;;;;5.93;3.10;;;;;;;2.86;100.00;101277.50;5042439;28;19999;-77
2022/04/19 01:36:57;;;;;;;6.28;3.15;;;;;;;2.75;100.00;101288.72;5017900;28;20405;-77
2022/04/19 01:42:10;;;;;;;6.47;3.35;;;;;;;2.68;100.00;101294.50;5039968;28;20029;-78
2022/04/19 01:44:38;;;;;;;6.63;3.70;;;;;;;2.62;100.00;101300.16;5025776;28;20041;-77
2022/04/19 01:47:07;;;;;;;7.68;3.50;;;;;;;2.65;100.00;101313.16;5020878;28;20029;-77
2022/04/19 01:49:37;;;;;;;6.68;4.05;;;;;;;2.56;100.00;101321.63;5012992;28;20037;-77
2022/04/19 01:52:03;;;;;;;5.47;3.20;;;;;;;2.48;100.00;101325.59;5022644;28;20415;-77
2022/04/19 01:54:30;;;;;;;4.30;2.83;;;;;;;2.52;100.00;101336.78;5025509;28;20571;-77
2022/04/19 01:56:56;;;;;;;4.55;3.33;;;;;;;2.44;100.00;101334.63;5024218;28;20478;-77
2022/04/19 01:59:38;;;;;;;7.38;3.15;;;;;;;2.41;100.00;101319.03;5028057;28;20052;-77
2022/04/19 02:02:15;;;;;;;7.75;3.95;;;;;;;2.41;100.00;101319.03;5019830;28;20054;-77
2022/04/19 02:04:41;;;;;;;5.73;3.23;;;;;;;2.41;100.00;101329.56;5019056;28;20029;-77
2022/04/19 02:07:06;;;;;;;7.23;3.20;;;;;;;2.41;100.00;101332.19;5039330;28;20399;-77
2022/04/19 02:09:32;;;;;;;4.03;2.47;;;;;;;2.42;100.00;101336.53;5041682;28;20044;-76
2022/04/19 02:11:59;;;;;;;5.18;2.83;;;;;;;2.45;100.00;101338.97;5023410;28;20037;-77
2022/04/19 02:14:43;;;;;;;7.32;3.53;;;;;;;2.43;100.00;101326.81;5039811;28;20110;-76
2022/04/19 02:17:12;;;;;;;5.75;3.88;;;;;;;2.41;100.00;101329.56;5041158;28;20029;-77
2022/04/19 02:19:37;;;;;;;5.00;3.40;;;;;;;2.44;100.00;101329.38;5024866;28;20070;-77
2022/04/19 02:22:06;;;;;;;6.43;3.65;;;;;;;2.48;100.00;101338.78;5022518;28;20484;-77
2022/04/19 02:24:34;;;;;;;6.85;4.03;;;;;;;2.48;100.00;101340.53;5025004;28;20725;-77
2022/04/19 02:27:00;;;;;;;5.95;3.00;;;;;;;2.44;100.00;101329.38;5039766;28;20159;-77
2022/04/19 02:29:27;;;;;;;7.32;3.22;;;;;;;2.46;100.00;101350.38;5041550;28;20028;-77
2022/04/19 02:31:53;;;;;;;6.68;3.28;;;;;;;2.43;100.00;101340.00;5022758;28;20036;-77
2022/04/19 02:34:19;;;;;;;7.47;2.92;;;;;;;2.39;100.00;101344.63;5041425;28;20048;-77
2022/04/19 02:36:46;;;;;;;6.60;3.70;;;;;;;2.25;100.00;101340.22;5023883;28;20041;-77
2022/04/19 02:39:12;;;;;;;5.43;3.38;;;;;;;2.26;100.00;101346.31;5024429;28;20017;-77
2022/04/19 02:41:37;;;;;;;6.53;3.47;;;;;;;2.26;100.00;101348.94;5024364;28;20040;-77
2022/04/19 02:44:07;;;;;;;10.80;4.95;;;;;;;2.22;100.00;101344.81;5039497;28;20406;-77
2022/04/19 02:46:35;;;;;;;8.25;4.65;;;;;;;2.24;100.00;101343.75;5036506;28;20029;-77
2022/04/19 02:49:05;;;;;;;6.00;3.45;;;;;;;2.21;100.00;101340.47;5023674;28;20407;-78
2022/04/19 02:51:35;;;;;;;9.68;5.53;;;;;;;2.19;100.00;101339.72;5040967;28;20040;-77
2022/04/19 02:54:01;;;;;;;7.93;3.92;;;;;;;2.19;100.00;101334.47;5040101;28;20095;-77
2022/04/19 02:56:27;;;;;;;7.80;4.53;;;;;;;2.17;100.00;101331.91;5025010;28;20021;-77
2022/04/19 02:58:52;;;;;;;8.75;3.97;;;;;;;2.20;100.00;101337.00;5023428;28;20033;-77
2022/04/19 03:01:19;;;;;;;8.63;4.07;;;;;;;2.21;100.00;101337.84;5024823;28;20513;-77
2022/04/19 03:03:46;;;;;;;5.63;3.40;;;;;;;2.17;100.00;101331.06;5023977;28;20075;-78
2022/04/19 03:06:14;;;;;;;4.72;3.17;;;;;;;2.11;100.00;101327.88;5025459;28;20052;-77
2022/04/19 03:08:40;;;;;;;6.82;3.17;;;;;;;2.08;100.00;101317.53;5025347;28;20159;-77
2022/04/19 03:11:05;;;;;;;6.47;3.50;;;;;;;2.08;100.00;101328.06;5038848;28;20037;-78
2022/04/19 03:13:32;;;;;;;8.02;3.75;;;;;;;2.03;100.00;101324.84;5041029;28;20040;-78
2022/04/19 03:15:58;;;;;;;6.65;3.55;;;;;;;2.05;100.00;101328.22;5023937;28;20542;-77
2022/04/19 03:18:24;;;;;;;5.05;3.53;;;;;;;2.01;100.00;101326.72;5041611;28;20041;-78
2022/04/19 03:20:51;;;;;;;;;;;;;;;2.00;100.00;101319.78;5024101;28;20485;-77
2022/04/19 03:28:50;;;;;;;5.85;3.38;;;;;;;1.95;100.00;101327.09;5039697;28;20059;-77
2022/04/19 03:31:16;;;;;;;6.60;3.95;;;;;;;1.95;100.00;101327.09;5041165;28;20207;-77
2022/04/19 03:33:42;;;;;;;9.00;3.90;;;;;;;1.94;100.00;101335.94;5027919;28;20393;-77
2022/04/19 03:36:08;;;;;;;6.70;4.30;;;;;;;1.96;100.00;101339.31;5045393;28;20029;-77
2022/04/19 03:38:35;;;;;;;8.40;4.40;;;;;;;1.98;100.00;101342.72;5027839;28;20044;-77
2022/04/19 03:41:01;;;;;;;9.02;3.65;;;;;;;1.98;100.00;101344.50;5042656;28;20032;-77
2022/04/19 03:43:27;;;;;;;7.00;3.33;;;;;;;1.97;100.00;101350.72;5022822;28;20036;-77
2022/04/19 03:45:52;;;;;;;5.87;3.27;;;;;;;1.94;100.00;101351.72;5043429;28;20025;-77
2022/04/19 03:48:19;;;;;;;5.70;3.60;;;;;;;1.97;100.00;101353.38;5044771;28;20318;-77
2022/04/19 03:50:45;;;;;;;5.63;3.28;;;;;;;1.99;100.00;101359.34;5027443;28;20413;-78
2022/04/19 03:53:10;;;;;;;6.03;3.92;;;;;;;1.99;100.00;101354.97;5043630;28;20037;-77
2022/04/19 03:55:36;;;;;;;8.50;4.00;;;;;;;1.99;100.00;101351.47;5027508;28;20037;-77
2022/04/19 03:58:03;;;;;;;6.18;3.63;;;;;;;1.99;100.00;101357.59;5021293;28;20130;-77
2022/04/19 04:00:28;;;;;;;;;;;;;;;2.01;100.00;101352.22;5039380;28;20125;-77
2022/04/19 04:02:53;;;;;;;5.50;2.85;;;;;;;2.00;100.00;101345.28;5026009;28;19995;-77
2022/04/19 04:05:25;;;;;;;6.00;3.13;;;;;;;2.02;100.00;101353.94;5028727;28;20025;-77
2022/04/19 04:07:51;;;;;;;4.63;3.10;;;;;;;2.00;100.00;101348.75;5043101;28;20039;-77
2022/04/19 04:10:20;;;;;;;4.82;2.60;;;;;;;1.98;100.00;101348.00;5027795;28;20036;-77
2022/04/19 04:12:46;;;;;;;4.40;3.00;;;;;;;2.00;100.00;101350.53;5019230;28;20041;-77
2022/04/19 04:15:11;;;;;;;8.20;3.08;;;;;;;2.03;100.00;101347.72;5027040;28;20259;-77
2022/04/19 04:17:37;;;;;;;5.85;2.58;;;;;;;2.04;100.00;101352.06;5027928;28;20037;-77
2022/04/19 04:20:03;;;;;;;5.57;2.85;;;;;;;2.07;100.00;101350.06;5042519;28;20398;-77
2022/04/19 04:22:28;;;;;;;7.25;3.97;;;;;;;2.10;100.00;101351.66;5026980;28;20116;-77
2022/04/19 04:24:54;;;;;;;6.18;3.10;;;;;;;2.08;100.00;101348.28;5025692;28;20083;-77
2022/04/19 04:27:21;;;;;;;5.95;3.78;;;;;;;2.10;100.00;101347.25;5027732;28;20043;-77
2022/04/19 04:29:47;;;;;;;5.25;2.97;;;;;;;2.11;100.00;101345.47;5043331;28;20021;-77
2022/04/19 04:32:13;;;;;;;5.05;3.10;;;;;;;2.14;100.00;101342.66;5018419;28;20033;-77
2022/04/19 04:34:39;;;;;;;;;;;;;;;2.21;100.00;101349.22;5044987;28;20434;-78
2022/04/19 04:37:06;;;;;;;;;;;;;;;2.24;100.00;101346.41;5026552;28;19917;-78
2022/04/19 04:39:35;;;;;;;;;;;;;;;2.29;100.00;101346.13;5028723;28;20352;-78
2022/04/19 04:42:19;;;;;;;;;;;;;;;2.35;100.00;101350.19;5041563;28;19920;-77
2022/04/19 04:44:44;;;;;;;;;;;;;;;2.40;100.00;101342.84;5023003;28;19912;-78
2022/04/19 04:49:57;;;;;;;;;;;;;;;2.59;100.00;101360.97;5044156;28;19912;-78
2022/04/19 04:52:23;;;;;;;;;;;;;;;2.64;100.00;101359.75;5028425;28;19916;-78
2022/04/19 04:54:50;;;;;;;;;;;;;;;2.73;100.00;101356.53;5043893;28;19913;-78
2022/04/19 04:57:24;;;;;;;;;;;;;;;2.85;100.00;101369.88;5042972;28;19909;-78
2022/04/19 04:59:49;;;;;;;;;;;;;;;2.96;100.00;101362.13;5041629;28;19931;-78
2022/04/19 05:02:15;;;;;;;;;;;;;;;3.07;100.00;101361.47;5044912;28;19917;-78
2022/04/19 05:04:42;;;;;;;;;;;;;;;3.16;100.00;101363.47;5044536;28;19916;-78
2022/04/19 05:07:07;;;;;;;;;;;;;;;3.25;100.00;101357.59;5044229;28;19920;-78
2022/04/19 05:09:41;;;;;;;;;;;;;;;3.31;100.00;101343.19;5029533;28;19917;-78
2022/04/19 05:12:07;;;;;;;;;;;;;;;3.38;100.00;101347.94;5026203;28;20468;-78
2022/04/19 05:14:33;;;;;;;;;;;;;;;3.36;100.00;101344.56;5027814;28;19913;-78
2022/04/19 05:16:58;;;;;;;;;;;;;;;3.47;100.00;101345.66;5043403;28;19920;-77
2022/04/19 05:19:24;;;;;;;;;;;;;;;3.57;100.00;101341.44;5031217;28;20365;-78
2022/04/19 05:21:49;;;;;;;;;;;;;;;3.63;100.00;101332.25;5027774;28;19916;-78
2022/04/19 05:24:14;;;;;;;;;;;;;;;3.88;100.00;101336.72;5047784;28;20262;-78
2022/04/19 05:26:40;;;;;;;;;;;;;;;4.15;100.00;101331.34;5037274;28;19919;-78
2022/04/19 05:29:06;;;;;;;;;;;;;;;4.68;100.00;101339.06;5038236;28;20151;-78
2022/04/19 05:31:31;;;;;;;;;;;;;;;5.21;100.00;101336.97;5030114;28;20309;-78
2022/04/19 05:33:56;;;;;;;;;;;;;;;5.71;100.00;101317.31;5019059;28;19923;-77
2022/04/19 05:36:23;;;;;;;;;;;;;;;6.24;100.00;101310.66;5043888;28;19921;-77
2022/04/19 05:38:52;;;;;;;;;;;;;;;6.41;100.00;101265.06;5026529;28;19920;-77
2022/04/19 05:41:20;;;;;;;;;;;;;;;6.33;100.00;101241.81;5032813;28;19920;-77
2022/04/19 05:43:46;;;;;;;;;;;;;;;6.56;100.00;101252.38;5007247;28;19917;-78
2022/04/19 05:46:12;;;;;;;;;;;;;;;7.23;100.00;101251.28;5023531;28;19920;-78
2022/04/19 05:48:37;;;;;;;;;;;;;;;8.12;100.00;101248.16;5008049;28;20570;-78
2022/04/19 05:51:02;;;;;;;;;;;;;;;8.62;100.00;101202.94;5024977;28;19916;-78
2022/04/19 05:53:27;;;;;;;;;;;;;;;9.35;100.00;101178.50;5021889;28;19917;-78
2022/04/19 05:55:54;;;;;;;;;;;;;;;9.77;100.00;101092.78;5033401;28;19924;-77
2022/04/19 05:58:19;;;;;;;;;;;;;;;10.12;92.33;101011.94;5025042;28;19909;-76
2022/04/19 06:00:44;;;;;;;;;;;;;;;10.48;90.18;101022.63;5035080;28;20369;-77
2022/04/19 06:05:54;;;;;;;;;;;;;;;10.82;81.46;100918.53;5035074;28;19916;-78
2022/04/19 06:08:20;;;;;;;;;;;;;;;10.57;78.33;100867.66;5041878;28;20339;-77
2022/04/19 06:10:51;;;;;;;;;;;;;;;10.24;78.44;100857.78;5023780;28;19920;-78
2022/04/19 06:13:17;;;;;;;;;;;;;;;9.71;77.69;100832.91;5026795;28;19951;-78
2022/04/19 06:15:43;;;;;;;;;;;;;;;9.72;79.63;100907.41;5026909;28;20338;-77
2022/04/19 06:18:08;;;;;;;;;;;;;;;9.58;81.05;100925.78;5037962;28;19999;-78
2022/04/19 06:20:53;;;;;;;;;;;;;;;8.80;81.69;100883.59;5037545;28;19970;-78
2022/04/19 06:23:19;;;;;;;;;;;;;;;8.81;84.78;100978.47;5037085;28;19940;-78
2022/04/19 06:25:45;;;;;;;;;;;;;;;8.83;86.39;101019.13;5043417;28;19940;-78
2022/04/19 06:28:11;;;;;;;;;;;;;;;8.92;86.89;101041.34;5035211;28;19952;-78
2022/04/19 06:31:11;;;;;;;;;;;;;;;9.04;87.27;101057.03;5042523;28;19960;-78
2022/04/19 06:33:38;;;;;;;;;;;;;;;9.53;86.63;101096.81;5026297;28;19920;-78
2022/04/19 06:36:05;;;;;;;;;;;;;;;10.30;81.82;101049.31;5025079;28;19913;-78
2022/04/19 06:38:33;;;;;;;;;;;;;;;10.63;78.04;100981.03;5037770;28;19917;-78
2022/04/19 06:40:59;;;;;;;;;;;;;;;10.72;76.67;100963.19;5024024;28;19955;-78
2022/04/19 06:43:25;;;;;;;;;;;;;;;11.28;74.63;100967.13;5020600;28;19913;-77
2022/04/19 06:46:09;;;;;;;;;;;;;;;11.74;71.19;100930.16;5028037;28;19908;-78
2022/04/19 06:48:36;;;;;;;;;;;;;;;12.42;67.17;100858.53;5026900;28;19962;-78
2022/04/19 06:51:01;;;;;;;;;;;;;;;12.89;62.60;100763.91;5024102;28;19913;-78
2022/04/19 06:53:30;;;;;;;;;;;;;;;13.04;61.95;100793.44;5026766;28;20419;-78
2022/04/19 06:55:58;;;;;;;;;;;;;;;12.53;60.31;100651.97;5026033;28;19912;-78
2022/04/19 06:58:24;;;;;;;;;;;;;;;11.44;64.82;100751.66;5021837;28;19920;-77
2022/04/19 07:00:50;;;;;;;;;;;;;;;11.76;65.80;100829.19;5022630;28;19912;-77
2022/04/19 07:03:15;;;;;;;;;;;;;;;11.22;65.64;100764.69;5036335;28;19928;-78
2022/04/19 07:05:53;;;;;;;;;;;;;;;11.33;66.40;100825.84;5042164;28;20233;-78
2022/04/19 07:08:18;;;;;;;;;;;;;;;10.92;67.33;100817.72;5047106;28;20309;-78
2022/04/19 07:10:43;;;;;;;;;;;;;;;11.48;69.32;100967.72;5031913;28;19995;-78
2022/04/19 07:13:44;;;;;;;;;;;;;;;12.15;64.29;100868.66;5045095;28;19923;-78
2022/04/19 07:16:13;;;;;;;;;;;;;;;12.42;64.14;100912.91;5048731;28;19923;-79
2022/04/19 07:18:39;;;;;;;;;;;;;;;12.82;63.56;100921.00;5031941;28;20004;-79
2022/04/19 07:26:45;;;;;;;;;;;;;;;11.55;63.98;100818.16;5041005;28;19920;-78
2022/04/19 07:29:13;;;;;;;;;;;;;;;10.91;63.93;100714.56;5031386;28;19917;-78
2022/04/19 07:31:41;;;;;;;;;;;;;;;11.43;66.35;100910.41;5026304;28;20668;-79
2022/04/19 07:34:10;;;;;;;;;;;;;;;11.72;63.58;100825.16;5042989;28;19917;-79
2022/04/19 07:36:39;;;;;;;;;;;;;;;11.48;63.86;100809.13;5033159;28;19916;-79
2022/04/19 07:39:05;;;;;;;;;;;;;;;11.77;64.48;100886.19;5030346;28;19920;-79
2022/04/19 07:41:38;;;;;;;;;;;;;;;11.39;64.70;100833.19;5040140;28;19923;-77
2022/04/19 07:44:08;;;;;;;;;;;;;;;11.40;65.75;100884.78;5048385;28;19912;-78
2022/04/19 07:46:34;;;;;;;;;;;;;;;11.44;66.25;100904.03;5027232;28;19921;-78
2022/04/19 07:48:59;;;;;;;;;;;;;;;11.48;65.05;100882.16;5041720;28;19920;-79
2022/04/19 07:51:25;;;;;;;;;;;;;;;11.90;64.76;100944.59;5026669;28;19968;-79
2022/04/19 07:53:51;;;;;;;;;;;;;;;12.26;62.92;100904.91;5039821;28;19917;-79
2022/04/19 07:56:16;;;;;;;;;;;;;;;12.15;61.69;100823.16;5028485;28;19913;-79
2022/04/19 07:58:43;;;;;;;;;;;;;;;12.44;61.26;100849.31;5037787;28;20206;-79
2022/04/19 08:01:08;;;;;;;;;;;;;;;12.17;61.37;100813.06;5024793;28;19917;-79
2022/04/19 08:03:35;;;;;;;;;;;;;;;12.46;63.20;100935.69;5026276;28;19913;-79
2022/04/19 08:06:00;;;;;;;;;;;;;;;12.92;61.10;100910.91;5040212;28;19960;-79
2022/04/19 08:08:26;;;;;;;;;;;;;;;13.32;61.50;100962.69;5032442;28;19936;-80
2022/04/19 08:10:51;;;;;;;;;;;;;;;13.64;59.58;100901.84;5030931;28;19924;-78
2022/04/19 08:13:17;;;;;;;;;;;;;;;14.04;57.99;100889.09;5032309;28;19913;-79
2022/04/19 08:15:42;;;;;;;;;;;;;;;14.96;61.15;101101.19;5040876;28;19971;-77
2022/04/19 08:18:13;;;;;;;;;;;;;;;14.58;56.64;100792.19;5022269;28;19959;-78
2022/04/19 08:20:43;;;;;;;;;;;;;;;14.48;55.99;100775.53;5032535;28;19912;-79
2022/04/19 08:23:09;;;;;;;;;;;;;;;14.60;57.38;100853.81;5038930;28;19924;-81
2022/04/19 08:25:38;;;;;;;;;;;;;;;14.58;57.21;100845.94;5017825;28;19909;-81
2022/04/19 08:28:04;;;;;;;;;;;;;;;15.09;56.69;100885.44;5021154;28;19917;-79
2022/04/19 08:30:29;;;;;;;;;;;;;;;15.39;56.73;100943.53;5032718;28;19920;-79
2022/04/19 08:32:55;;;;;;;;;;;;;;;15.39;56.45;100913.94;5034665;28;19916;-80
2022/04/19 08:35:20;;;;;;;;;;;;;;;15.67;54.39;100842.41;5036111;28;20043;-79
2022/04/19 08:37:46;;;;;;;;;;;;;;;16.55;53.45;100885.94;5045327;28;19920;-80
2022/04/19 08:40:12;;;;;;;;;;;;;;;16.18;51.25;100696.75;5028390;28;19909;-80
2022/04/19 08:42:40;;;;;;;;;;;;;;;16.72;50.75;100749.81;5030112;28;20011;-80
2022/04/19 08:45:07;;;;;;;;;;;;;;;17.15;49.70;100756.78;5039142;28;20377;-80
2022/04/19 08:47:33;;;;;;;;;;;;;;;16.90;48.65;100632.47;5036868;28;19917;-79
2022/04/19 08:50:03;;;;;;;;;;;;;;;17.59;48.28;100742.69;5038423;28;19940;-79
2022/04/19 08:52:29;;;;;;;;;;;;;;;17.34;47.48;100614.81;5040081;28;20512;-80
2022/04/19 08:57:39;;;;;;;;;;;;;;;17.81;47.26;100697.38;5046853;22;19925;-85
2022/04/19 09:00:05;;;;;;;;;;;;;;;17.52;47.15;100625.78;5028169;28;19909;-85
2022/04/19 09:09:28;;;;;;;;;;;;;;;18.75;45.73;100708.63;5014568;28;19937;-85
2022/04/19 09:11:54;;;;;;;;;;;;;;;18.20;45.13;100559.69;4995932;28;19957;-86
2022/04/19 09:14:19;;;;;;;;;;;;;;;18.50;45.92;100676.97;4997313;28;19910;-85
2022/04/19 09:16:45;;;;;;;;;;;;;;;19.02;44.93;100681.47;4980751;28;19931;-86
2022/04/19 09:19:25;;;;;;;;;;;;;;;18.77;45.36;100663.31;5014057;28;20301;-85
2022/04/19 09:21:51;;;;;;;;;;;;;;;18.66;44.94;100586.41;4991780;28;19910;-86
2022/04/19 09:24:17;;;;;;;;;;;;;;;18.52;45.42;100628.94;5013564;28;20393;-86
2022/04/19 09:26:43;;;;;;;;;;;;;;;18.60;44.47;100554.81;5013394;28;19963;-85
2022/04/19 09:29:17;;;;;;;;;;;;;;;18.48;45.34;100600.66;4996477;28;19913;-85
2022/04/19 09:31:42;;;;;;;;;;;;;;;18.91;42.87;100480.09;5023685;28;19913;-87
2022/04/19 09:34:07;;;;;;;;;;;;;;;19.04;42.43;100490.81;4988005;28;19925;-85
2022/04/19 09:36:33;;;;;;;;;;;;;;;18.57;40.10;100241.69;5021145;28;19961;-85
2022/04/19 09:38:58;;;;;;;;;;;;;;;19.23;40.97;100472.69;5021771;28;19941;-86
2022/04/19 09:41:31;;;;;;;;;;;;;;;18.77;40.62;100290.13;4996447;28;19913;-85
2022/04/19 09:44:06;;;;;;;;;;;;;;;18.88;41.41;100430.00;4994322;28;19950;-85
2022/04/19 09:46:31;;;;;;;;;;;;;;;19.80;40.88;100550.94;4996143;28;19913;-86
2022/04/19 09:48:57;;;;;;;;;;;;;;;20.53;39.59;100558.00;5014075;28;19909;-85
2022/04/19 09:55:01;;;;;;;;;;;;;;;20.38;39.64;100454.63;5014125;28;19943;-86
2022/04/19 09:57:28;;;;;;;;;;;;;;;20.25;39.57;100431.25;4997063;28;20048;-85
2022/04/19 09:59:54;;;;;;;;;;;;;;;20.52;40.42;100556.38;5010527;28;19916;-86
2022/04/19 10:08:31;;;;;;;;;;;;;;;20.65;38.21;100332.97;5012263;28;19975;-82
2022/04/19 10:10:57;;;;;;;;;;;;;;;20.16;38.61;100281.75;5010482;28;20362;-85
2022/04/19 10:13:25;;;;;;;;;;;;;;;19.06;38.11;100050.44;4995938;28;20348;-86
2022/04/19 10:15:51;;;;;;;;;;;;;;;18.81;40.04;100242.63;4987455;28;19917;-84
2022/04/19 10:18:16;;;;;;;;;;;;;;;19.48;39.67;100317.44;4995913;28;19979;-85
2022/04/19 10:21:09;;;;;;;;;;;;;;;19.87;37.36;100177.03;4999719;28;19964;-84
2022/04/19 10:23:39;;;;;;;;;;;;;;;18.73;40.02;100261.84;4996365;28;20406;-85
2022/04/19 10:26:24;;;;;;;;;;;;;;;18.55;38.40;100112.16;4995821;28;19913;-85
2022/04/19 10:28:53;;;;;;;;;;;;;;;17.30;38.97;99956.94;4988273;28;20052;-86
2022/04/19 10:34:41;;;;;;;;;;;;;;;17.73;39.64;100136.03;5014489;28;20004;-85
2022/04/19 10:37:15;;;;;;;;;;;;;;;17.02;40.90;100132.75;5013166;28;19946;-84
2022/04/19 10:39:44;;;;;;;;;;;;;;;17.39;39.86;100105.84;4996340;28;20024;-84
2022/04/19 10:42:26;;;;;;;;;;;;;;;16.86;40.29;100065.91;5011727;28;19909;-84
2022/04/19 10:44:52;;;;;;;;;;;;;;;17.78;41.20;100327.06;5010891;28;20472;-84
2022/04/19 10:47:23;;;;;;;;;;;;;;;18.62;40.25;100438.38;4991908;28;19922;-81
2022/04/19 10:49:48;;;;;;;;;;;;;;;16.90;39.83;100009.66;4993091;28;20435;-85
2022/04/19 10:52:33;;;;;;;;;;;;;;;18.83;39.39;100381.16;5011696;28;19913;-84
2022/04/19 10:55:08;;;;;;;;;;;;;;;17.67;38.25;99977.66;5005335;28;19921;-87
2022/04/19 11:00:31;;;;;;;;;;;;;;;16.01;40.78;99905.50;5010168;28;20301;-85
2022/04/19 11:03:03;;;;;;;;;;;;;;;16.39;42.72;100214.38;4994597;28;19913;-86
2022/04/19 11:12:08;;;;;;;;;;;;;;;17.85;40.39;100292.75;5011282;28;20456;-86
2022/04/19 11:15:14;;;;;;;;;;;;;;;16.48;40.41;99985.09;5001340;28;20375;-86
2022/04/19 11:21:47;;;;;;;;;;;;;;;16.90;40.88;100180.31;5011004;28;19920;-85
2022/04/19 11:24:12;;;;;;;;;;;;;;;16.77;39.89;100037.53;4996249;28;19935;-87
2022/04/19 11:26:41;;;;;;;;;;;;;;;16.64;40.79;100135.47;5007310;28;19913;-86
2022/04/19 11:29:13;;;;;;;;;;;;;;;17.57;39.63;100274.25;5000469;28;19936;-85
2022/04/19 11:31:44;;;;;;;;;;;;;;;18.10;38.58;100263.03;4993898;28;19917;-84
2022/04/19 11:34:14;;;;;;;;;;;;;;;17.25;38.36;100029.63;5002293;28;19917;-85
2022/04/19 11:48:33;;;;;;;;;;;;;;;17.25;35.61;99862.38;5010417;28;20392;-84
2022/04/19 11:51:11;;;;;;;;;;;;;;;18.06;35.15;100041.13;4993694;28;19914;-85
2022/04/19 11:53:37;;;;;;;;;;;;;;;17.16;33.33;99629.13;4988337;28;19960;-85
2022/04/19 11:56:03;;;;;;;;;;;;;;;17.57;33.94;99859.44;5015101;28;19936;-85
2022/04/19 11:58:28;;;;;;;;;;;;;;;18.18;32.69;99829.66;4982973;28;19931;-85
2022/04/19 12:00:58;;;;;;;;;;;;;;;16.42;33.66;99524.31;4986320;28;20018;-84
2022/04/19 12:03:31;;;;;;;;;;;;;;;15.92;34.15;99486.94;5005394;28;19985;-84
2022/04/19 12:06:18;;;;;;;;;;;;;;;16.72;33.60;99685.13;5005495;28;19917;-85
2022/04/19 12:08:45;;;;;;;;;;;;;;;17.59;33.40;99908.63;4996833;28;19913;-85
2022/04/19 12:11:13;;;;;;;;;;;;;;;17.63;31.59;99645.31;4996655;28;19917;-85
2022/04/19 12:13:41;;;;;;;;;;;;;;;18.48;31.34;99929.53;5014773;28;20352;-84
2022/04/19 12:16:09;;;;;;;;;;;;;;;16.07;30.87;99335.75;4996712;28;19932;-84
2022/04/19 12:18:36;;;;;;;;;;;;;;;17.17;30.53;99533.66;4994323;28;20420;-84
2022/04/19 12:24:30;;;;;;;;;;;;;;;17.09;30.17;99544.78;5009014;28;19939;-84
2022/04/19 12:27:08;;;;;;;;;;;;;;;17.22;28.63;99371.97;4994172;28;19913;-85
2022/04/19 12:30:09;;;;;;;;;;;;;;;16.92;28.61;99307.44;5014945;28;19955;-85
2022/04/19 12:32:53;;;;;;;;;;;;;;;18.23;29.25;99754.94;4996704;28;19917;-84
2022/04/19 12:35:28;;;;;;;;;;;;;;;16.92;28.10;99250.84;4997916;28;19917;-84
2022/04/19 12:38:07;;;;;;;;;;;;;;;16.31;28.71;99255.78;4997000;28;19917;-85
2022/04/19 12:40:33;;;;;;;;;;;;;;;17.36;28.14;99394.06;4988638;28;19913;-85
2022/04/19 12:42:59;;;;;;;;;;;;;;;17.10;29.65;99562.63;5012891;28;19909;-84
2022/04/19 12:45:29;;;;;;;;;;;;;;;17.80;28.71;99623.00;4996992;28;20331;-84
2022/04/19 12:47:57;;;;;;;;;;;;;;;17.84;29.08;99660.13;5012643;28;20365;-86
2022/04/19 12:50:22;;;;;;;;;;;;;;;19.10;29.30;99920.91;5021077;28;20353;-85
2022/04/19 12:52:48;;;;;;;;;;;;;;;18.48;26.99;99470.91;4996251;28;19928;-83
2022/04/19 12:55:14;;;;;;;;;;;;;;;19.33;27.78;99801.78;5011876;28;19916;-84
2022/04/19 12:57:42;;;;;;;;;;;;;;;19.55;26.85;99671.97;5009702;28;20004;-84
2022/04/19 13:00:09;;;;;;;;;;;;;;;19.86;27.61;99821.41;4971641;28;19921;-84
2022/04/19 13:02:38;;;;;;;;;;;;;;;19.26;27.04;99571.09;4996852;28;19913;-84
2022/04/19 13:05:04;;;;;;;;;;;;;;;18.63;27.12;99394.63;4993503;28;20038;-85
2022/04/19 13:12:16;;;;;;;;;;;;;;;18.99;29.00;99800.88;5006747;28;19975;-85
2022/04/19 13:13:06;;;;;;;;;;;;;;;19.72;28.34;99841.75;5027106;28;20010;-85
2022/04/19 13:15:32;;;;;;;;;;;;;;;18.67;27.96;99538.25;5013232;28;19940;-85
2022/04/19 13:17:58;;;;;;;;;;;;;;;18.97;28.95;99787.59;4987165;28;20015;-85
2022/04/19 13:20:23;;;;;;;;;;;;;;;19.71;28.47;99872.56;4993584;28;19941;-86
2022/04/19 13:22:49;;;;;;;;;;;;;;;20.31;28.57;99988.50;5009551;28;20008;-85
2022/04/19 13:28:42;;;;;;;;;;;;;;;18.79;28.60;99562.53;5014737;28;19967;-86
2022/04/19 13:31:07;;;;;;;;;;;;;;;17.40;28.93;99345.88;4996626;28;20210;-85
2022/04/19 13:33:33;;;;;;;;;;;;;;;18.44;30.21;99752.69;4988912;28;19914;-85
2022/04/19 13:36:23;;;;;;;;;;;;;;;15.92;30.49;99168.50;5001212;28;19920;-84
2022/04/19 13:39:14;;;;;;;;;;;;;;;15.42;31.81;99220.84;5014169;28;19921;-85